ATC SCHEDULE

ATC (0): Portugal vACC
No ATC scheduled
Free Web Hosting - Your Website need to be migrated
Powered by Hostinger cloud

Since May 1, 2017 your website should be switched to new members area.
If you still need your website follow instructions below.

No worries, we’ll help you with the migration process so that you could enjoy your website again!
All you need to do is follow these simple instructions:

  1. Log in to old members area
  2. Backup all your files via FTP
  3. Backup your databases via phpMyAdmin
  4. Backup email by pushing your emails to Gmail
  5. Create account in new members area and setup your website from backup
  6. Still confused? Read migration tutorials in forum


Looking for Web Hosting? Check this out!

Free Web Hosting
FREE
  • 1000 MB Disk Space
  • 10000 MB Bandwidth
  • 2 MySQL Databases
  • 5 Email Forwarders
  • 2 Websites
  • Website Builder
  • Free domain hosting
  • View all features
Business - Gold Hosting
$7.95
  • Unlimited Number of Websites
  • Unlimited SSD Disk Space
  • Unlimited Bandwidth
  • Unlimited MySQL Databases
  • Unlimited FTP Users
  • Simple Website builder
  • Unlimited Email Accounts
  • 5X WordPress Optimized Speed
  • Free Domain Name
  • Daily Backups
  • Deluxe Live Support
  • 2X Processing Power & Memory
  • Free SSL Certificate to secure customer data & increase SEO rankings.
  • View all features

As a cherry on the cake, you also get these at Premium 000Webhost:

Please share & Like this page! This will motivate us to develop more & better free features!

Hosted websites for 15,458,570 users all over the world!

  • php
  • my sql
  • intel
  • cloudlinux
  • nginx
  • cloudflare
  • wordpress

TRAFFIC SCHEDULE

No Flights scheduled

LIVE ATC


Banner
Santa Maria Control: 132.150
Santa Maria Approach: 119.100
P. Delgada Approach: 119.400
Lajes Approach: 135.000
Lajes Tower: 122.100

PORTUGAL VACC LOGIN

JOIN PORTUGAL vACC


Banner
Join Portugal vACC as Air Traffic Controller and be part of our team


Banner
Join Portugal vACC as a pilot

QUICK LINKS


Banner
Banner
Banner

GET SOCIAL

Welcome

Welcome Santa Maria FIR here you will find information regarding virtual flying in Santa Maria Oceanic Fir.

Portugal VACC provides Virtual Air Traffic Control to Santa Maria Oceanic on the VATSIM network. All you need to know about virtual flying in Santa Maria Oceanic Fir can be found on this site.

Santa Maria Fir is well known for true real life procedures of Air Traffic Control and for our excellent virtual ATC skills. Our mission is to provide a realistic Air Traffic Control service all over Portuguese air space, and make the virtual pilot's experience to be as real as it gets while they fly in Portuguese air space through the VATSIM network.

 

vACC Chart Center

fireevent

Pilots and controllers are encouraged to access our chart center with chart information for all LPPC main airports. Visit this new tool which is essential for a better experience at our airports.

Briefing Room

fireevent

Briefing Room is a online platform where pilots can plan a flight or create a flight plan. Routes, Charts, Weather information can be found here. Enjoy our Briefing Room

Latest Metars

Santa Maria LPAZ 230200Z 14006KT 9999 FEW012 SCT038 21/20 Q1026
Ponta Delgada LPPD 230200Z 11005KT 9999 FEW016 BKN030 21/19 Q1026
Lajes LPLA 230200Z 15006KT 9000 -RA SCT012 BKN020 BKN030 21/20 Q1026
Horta LPHR 222100Z 14011KT 9999 FEW014 BKN035 22/19 Q1025
Flores LPFL 221800Z 15008KT 9999 SCT023 SCT030 22/17 Q1024

News

Welcome to our new website This new version is more intuitive and with new functionalities such as Briefing Room. Hope you enjoy exploring our new site.

Notam

NO NOTAMS (0)
08-29-2012


See All →

Webmaster